sensor_id;sensor_type;location;lat;lon;timestamp;pressure;altitude;pressure_sealevel;temperature;humidity
77517;BME280;68414;53.946;27.634;2023-08-08T00:00:10;97789.062500;;;17.020000;75.491211
77517;BME280;68414;53.946;27.634;2023-08-08T00:01:09;97794.554688;;;17.049999;75.177734
77517;BME280;68414;53.946;27.634;2023-08-08T00:02:09;97795.281250;;;17.090000;74.680664
77517;BME280;68414;53.946;27.634;2023-08-08T00:03:09;97795.453125;;;17.219999;74.217773
77517;BME280;68414;53.946;27.634;2023-08-08T00:04:10;97794.984375;;;17.270000;73.633789
77517;BME280;68414;53.946;27.634;2023-08-08T00:05:09;97797.046875;;;17.230000;74.220703
77517;BME280;68414;53.946;27.634;2023-08-08T00:06:09;97803.156250;;;17.139999;74.270508
77517;BME280;68414;53.946;27.634;2023-08-08T00:07:09;97802.179688;;;17.010000;75.325195
77517;BME280;68414;53.946;27.634;2023-08-08T00:08:11;97802.359375;;;17.139999;75.742188
77517;BME280;68414;53.946;27.634;2023-08-08T00:09:09;97806.484375;;;17.059999;75.278320
77517;BME280;68414;53.946;27.634;2023-08-08T00:10:09;97810.093750;;;17.030001;75.328125
77517;BME280;68414;53.946;27.634;2023-08-08T00:11:09;97819.500000;;;17.120001;75.289062
77517;BME280;68414;53.946;27.634;2023-08-08T00:12:09;97810.281250;;;17.150000;74.272461
77517;BME280;68414;53.946;27.634;2023-08-08T00:13:09;97812.296875;;;17.150000;74.195312
77517;BME280;68414;53.946;27.634;2023-08-08T00:14:09;97806.593750;;;17.219999;74.404297
77517;BME280;68414;53.946;27.634;2023-08-08T00:15:09;97821.671875;;;17.240000;73.804688
77517;BME280;68414;53.946;27.634;2023-08-08T00:16:09;97807.820312;;;17.209999;74.239258
77517;BME280;68414;53.946;27.634;2023-08-08T00:17:09;97820.398438;;;17.290001;74.361328
77517;BME280;68414;53.946;27.634;2023-08-08T00:18:09;97825.062500;;;17.350000;74.251953
77517;BME280;68414;53.946;27.634;2023-08-08T00:19:09;97821.078125;;;17.360001;73.957031
77517;BME280;68414;53.946;27.634;2023-08-08T00:20:09;97824.156250;;;17.190001;74.377930
77517;BME280;68414;53.946;27.634;2023-08-08T00:21:09;97831.359375;;;17.160000;74.989258
77517;BME280;68414;53.946;27.634;2023-08-08T00:22:09;97831.781250;;;17.150000;75.370117
77517;BME280;68414;53.946;27.634;2023-08-08T00:23:09;97833.882812;;;17.070000;75.621094
77517;BME280;68414;53.946;27.634;2023-08-08T00:24:09;97830.476562;;;16.959999;75.722656
77517;BME280;68414;53.946;27.634;2023-08-08T00:25:09;97838.890625;;;16.930000;75.398438
77517;BME280;68414;53.946;27.634;2023-08-08T00:26:09;97833.421875;;;16.860001;75.574219
77517;BME280;68414;53.946;27.634;2023-08-08T00:27:09;97840.453125;;;16.940001;75.059570
77517;BME280;68414;53.946;27.634;2023-08-08T00:28:09;97833.953125;;;17.040001;74.945312
77517;BME280;68414;53.946;27.634;2023-08-08T00:29:09;97830.804688;;;17.020000;74.502930
77517;BME280;68414;53.946;27.634;2023-08-08T00:30:10;97828.851562;;;16.990000;74.333984
77517;BME280;68414;53.946;27.634;2023-08-08T00:31:09;97829.750000;;;16.920000;74.640625
77517;BME280;68414;53.946;27.634;2023-08-08T00:32:09;97832.062500;;;16.969999;74.407227
77517;BME280;68414;53.946;27.634;2023-08-08T00:33:09;97834.351562;;;17.020000;74.130859
77517;BME280;68414;53.946;27.634;2023-08-08T00:34:09;97836.765625;;;17.000000;73.983398
77517;BME280;68414;53.946;27.634;2023-08-08T00:35:09;97840.140625;;;17.150000;73.163086
77517;BME280;68414;53.946;27.634;2023-08-08T00:36:09;97847.625000;;;17.180000;73.662109
77517;BME280;68414;53.946;27.634;2023-08-08T00:37:09;97844.585938;;;17.090000;73.878906
77517;BME280;68414;53.946;27.634;2023-08-08T00:38:09;97853.828125;;;17.020000;73.956055
77517;BME280;68414;53.946;27.634;2023-08-08T00:39:09;97856.765625;;;17.180000;73.531250
77517;BME280;68414;53.946;27.634;2023-08-08T00:40:09;97849.250000;;;17.150000;73.866211
77517;BME280;68414;53.946;27.634;2023-08-08T00:41:09;97852.250000;;;17.280001;72.931641
77517;BME280;68414;53.946;27.634;2023-08-08T00:42:09;97853.695312;;;17.129999;73.137695
77517;BME280;68414;53.946;27.634;2023-08-08T00:43:09;97848.593750;;;17.080000;73.512695
77517;BME280;68414;53.946;27.634;2023-08-08T00:44:09;97846.812500;;;16.940001;73.579102
77517;BME280;68414;53.946;27.634;2023-08-08T00:45:09;97843.195312;;;16.969999;73.869141
77517;BME280;68414;53.946;27.634;2023-08-08T00:46:09;97852.078125;;;16.889999;75.139648
77517;BME280;68414;53.946;27.634;2023-08-08T00:47:09;97850.023438;;;16.930000;73.959961
77517;BME280;68414;53.946;27.634;2023-08-08T00:48:09;97851.578125;;;16.940001;74.401367
77517;BME280;68414;53.946;27.634;2023-08-08T00:49:09;97851.218750;;;16.920000;74.112305
77517;BME280;68414;53.946;27.634;2023-08-08T00:50:09;97856.421875;;;16.900000;74.855469
77517;BME280;68414;53.946;27.634;2023-08-08T00:51:09;97850.914062;;;16.860001;73.412109
77517;BME280;68414;53.946;27.634;2023-08-08T00:52:09;97852.265625;;;16.750000;73.842773
77517;BME280;68414;53.946;27.634;2023-08-08T00:53:09;97846.968750;;;16.840000;74.451172
77517;BME280;68414;53.946;27.634;2023-08-08T00:54:09;97852.281250;;;17.010000;73.227539
77517;BME280;68414;53.946;27.634;2023-08-08T00:55:09;97854.062500;;;16.879999;73.130859
77517;BME280;68414;53.946;27.634;2023-08-08T00:56:09;97862.500000;;;16.809999;73.777344
77517;BME280;68414;53.946;27.634;2023-08-08T00:57:09;97852.906250;;;16.860001;73.861328
77517;BME280;68414;53.946;27.634;2023-08-08T00:58:09;97854.218750;;;16.780001;74.561523
77517;BME280;68414;53.946;27.634;2023-08-08T00:59:09;97855.046875;;;16.750000;73.953125
77517;BME280;68414;53.946;27.634;2023-08-08T01:00:09;97868.132812;;;16.780001;74.791016
77517;BME280;68414;53.946;27.634;2023-08-08T01:01:09;97866.546875;;;16.770000;73.747070
77517;BME280;68414;53.946;27.634;2023-08-08T01:02:09;97869.656250;;;16.820000;73.614258
77517;BME280;68414;53.946;27.634;2023-08-08T01:03:09;97863.937500;;;16.930000;73.224609
77517;BME280;68414;53.946;27.634;2023-08-08T01:04:09;97873.539062;;;16.879999;73.976562
77517;BME280;68414;53.946;27.634;2023-08-08T01:05:09;97868.765625;;;16.889999;73.427734
77517;BME280;68414;53.946;27.634;2023-08-08T01:08:09;97881.671875;;;16.760000;73.614258
77517;BME280;68414;53.946;27.634;2023-08-08T01:09:13;97880.421875;;;16.799999;74.291016
77517;BME280;68414;53.946;27.634;2023-08-08T01:10:10;97885.031250;;;16.900000;73.079102
77517;BME280;68414;53.946;27.634;2023-08-08T01:11:09;97884.609375;;;16.920000;73.673828
77517;BME280;68414;53.946;27.634;2023-08-08T01:12:10;97881.187500;;;16.809999;74.248047
77517;BME280;68414;53.946;27.634;2023-08-08T01:14:09;97894.851562;;;16.719999;74.453125
77517;BME280;68414;53.946;27.634;2023-08-08T01:15:09;97894.515625;;;16.660000;74.782227
77517;BME280;68414;53.946;27.634;2023-08-08T01:16:09;97890.695312;;;16.830000;72.814453
77517;BME280;68414;53.946;27.634;2023-08-08T01:17:10;97889.960938;;;16.790001;73.213867
77517;BME280;68414;53.946;27.634;2023-08-08T01:18:09;97891.640625;;;16.730000;73.829102
77517;BME280;68414;53.946;27.634;2023-08-08T01:19:11;97889.687500;;;16.700001;74.251953
77517;BME280;68414;53.946;27.634;2023-08-08T01:20:09;97893.406250;;;16.600000;74.717773
77517;BME280;68414;53.946;27.634;2023-08-08T01:21:11;97894.203125;;;16.600000;75.420898
77517;BME280;68414;53.946;27.634;2023-08-08T01:22:25;97898.335938;;;16.450001;74.681641
77517;BME280;68414;53.946;27.634;2023-08-08T01:23:11;97902.734375;;;16.430000;74.842773
77517;BME280;68414;53.946;27.634;2023-08-08T01:25:11;97900.695312;;;16.469999;74.344727
77517;BME280;68414;53.946;27.634;2023-08-08T01:26:09;97907.687500;;;16.620001;73.328125
77517;BME280;68414;53.946;27.634;2023-08-08T01:27:09;97907.421875;;;16.490000;73.888672
77517;BME280;68414;53.946;27.634;2023-08-08T01:28:09;97906.679688;;;16.450001;74.220703
77517;BME280;68414;53.946;27.634;2023-08-08T01:29:09;97903.046875;;;16.480000;74.128906
77517;BME280;68414;53.946;27.634;2023-08-08T01:30:09;97911.390625;;;16.480000;73.986328
77517;BME280;68414;53.946;27.634;2023-08-08T01:31:09;97908.718750;;;16.410000;74.587891
77517;BME280;68414;53.946;27.634;2023-08-08T01:32:09;97904.242188;;;16.510000;73.968750
77517;BME280;68414;53.946;27.634;2023-08-08T01:33:09;97908.906250;;;16.610001;73.633789
77517;BME280;68414;53.946;27.634;2023-08-08T01:34:09;97912.789062;;;16.670000;72.821289
77517;BME280;68414;53.946;27.634;2023-08-08T01:35:09;97908.984375;;;16.540001;73.500000
77517;BME280;68414;53.946;27.634;2023-08-08T01:37:19;97918.992188;;;16.440001;74.811523
77517;BME280;68414;53.946;27.634;2023-08-08T01:39:10;97915.023438;;;16.450001;74.001953
77517;BME280;68414;53.946;27.634;2023-08-08T01:40:09;97915.921875;;;16.350000;74.883789
77517;BME280;68414;53.946;27.634;2023-08-08T01:41:09;97917.140625;;;16.340000;74.609375
77517;BME280;68414;53.946;27.634;2023-08-08T01:42:09;97917.156250;;;16.309999;74.712891
77517;BME280;68414;53.946;27.634;2023-08-08T01:43:09;97925.796875;;;16.400000;74.003906
77517;BME280;68414;53.946;27.634;2023-08-08T01:44:10;97918.625000;;;16.420000;73.986328
77517;BME280;68414;53.946;27.634;2023-08-08T01:45:09;97933.320312;;;16.430000;73.625977
77517;BME280;68414;53.946;27.634;2023-08-08T01:46:09;97926.406250;;;16.580000;73.255859
77517;BME280;68414;53.946;27.634;2023-08-08T01:47:09;97924.820312;;;16.570000;73.264648
77517;BME280;68414;53.946;27.634;2023-08-08T01:48:10;97926.359375;;;16.610001;73.294922
77517;BME280;68414;53.946;27.634;2023-08-08T01:49:09;97934.437500;;;16.490000;73.931641
77517;BME280;68414;53.946;27.634;2023-08-08T01:50:09;97939.625000;;;16.469999;74.268555
77517;BME280;68414;53.946;27.634;2023-08-08T01:51:09;97937.851562;;;16.629999;73.649414
77517;BME280;68414;53.946;27.634;2023-08-08T01:52:09;97944.203125;;;16.639999;72.880859
77517;BME280;68414;53.946;27.634;2023-08-08T01:53:09;97938.359375;;;16.549999;73.085938
77517;BME280;68414;53.946;27.634;2023-08-08T01:54:09;97950.328125;;;16.520000;73.530273
77517;BME280;68414;53.946;27.634;2023-08-08T01:55:09;97945.515625;;;16.559999;72.813477
77517;BME280;68414;53.946;27.634;2023-08-08T01:56:09;97944.640625;;;16.620001;73.142578
77517;BME280;68414;53.946;27.634;2023-08-08T01:57:09;97945.140625;;;16.540001;73.248047
77517;BME280;68414;53.946;27.634;2023-08-08T01:58:09;97948.718750;;;16.540001;74.072266
77517;BME280;68414;53.946;27.634;2023-08-08T01:59:09;97947.414062;;;16.620001;73.383789
77517;BME280;68414;53.946;27.634;2023-08-08T02:00:09;97947.703125;;;16.719999;73.355469
77517;BME280;68414;53.946;27.634;2023-08-08T02:01:11;97952.265625;;;16.549999;73.986328
77517;BME280;68414;53.946;27.634;2023-08-08T02:02:09;97961.843750;;;16.500000;73.901367
77517;BME280;68414;53.946;27.634;2023-08-08T02:03:09;97960.953125;;;16.600000;73.787109
77517;BME280;68414;53.946;27.634;2023-08-08T02:04:09;97967.007812;;;16.480000;73.843750
77517;BME280;68414;53.946;27.634;2023-08-08T02:05:09;97957.500000;;;16.459999;74.167969
77517;BME280;68414;53.946;27.634;2023-08-08T02:06:11;97962.312500;;;16.420000;74.446289
77517;BME280;68414;53.946;27.634;2023-08-08T02:07:09;97964.703125;;;16.430000;74.404297
77517;BME280;68414;53.946;27.634;2023-08-08T02:08:09;97965.593750;;;16.330000;74.058594
77517;BME280;68414;53.946;27.634;2023-08-08T02:09:09;97961.570312;;;16.379999;74.165039
77517;BME280;68414;53.946;27.634;2023-08-08T02:10:09;97963.976562;;;16.360001;74.545898
77517;BME280;68414;53.946;27.634;2023-08-08T02:11:09;97964.046875;;;16.290001;74.402344
77517;BME280;68414;53.946;27.634;2023-08-08T02:12:09;97962.125000;;;16.219999;75.203125
77517;BME280;68414;53.946;27.634;2023-08-08T02:13:09;97966.546875;;;16.200001;75.187500
77517;BME280;68414;53.946;27.634;2023-08-08T02:14:09;97965.687500;;;16.260000;75.022461
77517;BME280;68414;53.946;27.634;2023-08-08T02:15:09;97973.062500;;;16.400000;74.880859
77517;BME280;68414;53.946;27.634;2023-08-08T02:16:09;97979.046875;;;16.379999;74.703125
77517;BME280;68414;53.946;27.634;2023-08-08T02:17:09;97969.468750;;;16.430000;74.985352
77517;BME280;68414;53.946;27.634;2023-08-08T02:18:09;97983.859375;;;16.340000;74.291992
77517;BME280;68414;53.946;27.634;2023-08-08T02:19:09;97983.437500;;;16.360001;74.655273
77517;BME280;68414;53.946;27.634;2023-08-08T02:20:09;97980.031250;;;16.209999;74.936523
77517;BME280;68414;53.946;27.634;2023-08-08T02:21:09;97980.828125;;;16.219999;74.883789
77517;BME280;68414;53.946;27.634;2023-08-08T02:22:09;97983.500000;;;16.290001;74.500977
77517;BME280;68414;53.946;27.634;2023-08-08T02:23:09;97986.773438;;;16.200001;75.385742
77517;BME280;68414;53.946;27.634;2023-08-08T02:24:09;97986.382812;;;16.219999;74.675781
77517;BME280;68414;53.946;27.634;2023-08-08T02:25:09;97994.781250;;;16.150000;74.454102
77517;BME280;68414;53.946;27.634;2023-08-08T02:26:09;97991.203125;;;16.139999;74.596680
77517;BME280;68414;53.946;27.634;2023-08-08T02:27:09;97991.734375;;;16.020000;75.310547
77517;BME280;68414;53.946;27.634;2023-08-08T02:28:09;97990.031250;;;16.120001;75.446289
77517;BME280;68414;53.946;27.634;2023-08-08T02:29:09;97989.640625;;;16.129999;74.803711
77517;BME280;68414;53.946;27.634;2023-08-08T02:30:09;97992.921875;;;16.010000;75.549805
77517;BME280;68414;53.946;27.634;2023-08-08T02:31:09;97992.812500;;;16.120001;75.292969
77517;BME280;68414;53.946;27.634;2023-08-08T02:32:09;97998.046875;;;16.059999;75.339844
77517;BME280;68414;53.946;27.634;2023-08-08T02:33:09;97985.320312;;;16.090000;75.638672
77517;BME280;68414;53.946;27.634;2023-08-08T02:34:09;97994.890625;;;16.040001;75.763672
77517;BME280;68414;53.946;27.634;2023-08-08T02:35:09;97996.281250;;;16.230000;74.733398
77517;BME280;68414;53.946;27.634;2023-08-08T02:36:09;97993.921875;;;16.209999;74.750000
77517;BME280;68414;53.946;27.634;2023-08-08T02:37:09;97997.562500;;;16.150000;74.717773
77517;BME280;68414;53.946;27.634;2023-08-08T02:38:09;98005.484375;;;16.160000;75.235352
77517;BME280;68414;53.946;27.634;2023-08-08T02:39:09;98001.468750;;;16.209999;74.750000
77517;BME280;68414;53.946;27.634;2023-08-08T02:40:09;98001.890625;;;16.190001;75.250977
77517;BME280;68414;53.946;27.634;2023-08-08T02:41:09;98004.296875;;;16.170000;75.423828
77517;BME280;68414;53.946;27.634;2023-08-08T02:42:09;98001.992188;;;16.090000;74.982422
77517;BME280;68414;53.946;27.634;2023-08-08T02:43:11;98008.242188;;;16.200001;74.124023
77517;BME280;68414;53.946;27.634;2023-08-08T02:44:09;98004.351562;;;16.100000;74.425781
77517;BME280;68414;53.946;27.634;2023-08-08T02:45:11;98015.742188;;;16.230000;74.261719
77517;BME280;68414;53.946;27.634;2023-08-08T02:46:09;98023.578125;;;16.350000;73.885742
77517;BME280;68414;53.946;27.634;2023-08-08T02:47:09;98016.476562;;;16.299999;73.812500
77517;BME280;68414;53.946;27.634;2023-08-08T02:48:09;98021.984375;;;16.340000;73.960938
77517;BME280;68414;53.946;27.634;2023-08-08T02:49:09;98021.281250;;;16.260000;74.518555
77517;BME280;68414;53.946;27.634;2023-08-08T02:50:09;98018.562500;;;16.190001;74.221680
77517;BME280;68414;53.946;27.634;2023-08-08T02:51:09;98016.218750;;;16.139999;74.848633
77517;BME280;68414;53.946;27.634;2023-08-08T02:52:09;98017.281250;;;16.270000;74.169922
77517;BME280;68414;53.946;27.634;2023-08-08T02:53:09;98031.765625;;;16.080000;75.080078
77517;BME280;68414;53.946;27.634;2023-08-08T02:54:09;98031.710938;;;16.150000;74.795898
77517;BME280;68414;53.946;27.634;2023-08-08T02:55:09;98024.015625;;;16.299999;73.703125
77517;BME280;68414;53.946;27.634;2023-08-08T02:56:09;98032.359375;;;16.299999;72.924805
77517;BME280;68414;53.946;27.634;2023-08-08T02:57:09;98032.312500;;;16.330000;73.664062
77517;BME280;68414;53.946;27.634;2023-08-08T02:58:09;98032.734375;;;16.320000;73.102539
77517;BME280;68414;53.946;27.634;2023-08-08T02:59:09;98028.359375;;;16.309999;73.638672
77517;BME280;68414;53.946;27.634;2023-08-08T03:00:09;98036.265625;;;16.360001;73.164062
77517;BME280;68414;53.946;27.634;2023-08-08T03:01:09;98035.937500;;;16.299999;73.044922
77517;BME280;68414;53.946;27.634;2023-08-08T03:02:09;98030.015625;;;16.250000;73.936523
77517;BME280;68414;53.946;27.634;2023-08-08T03:03:09;98034.171875;;;16.059999;74.365234
77517;BME280;68414;53.946;27.634;2023-08-08T03:04:09;98035.296875;;;16.120001;74.747070
77517;BME280;68414;53.946;27.634;2023-08-08T03:05:09;98039.585938;;;16.200001;74.333984
77517;BME280;68414;53.946;27.634;2023-08-08T03:06:09;98042.781250;;;16.190001;73.837891
77517;BME280;68414;53.946;27.634;2023-08-08T03:07:09;98039.210938;;;16.180000;74.417969
77517;BME280;68414;53.946;27.634;2023-08-08T03:08:09;98051.593750;;;16.100000;74.546875
77517;BME280;68414;53.946;27.634;2023-08-08T03:09:09;98044.390625;;;16.160000;74.523438
77517;BME280;68414;53.946;27.634;2023-08-08T03:10:09;98041.171875;;;16.209999;73.840820
77517;BME280;68414;53.946;27.634;2023-08-08T03:11:09;98036.039062;;;16.200001;73.313477
77517;BME280;68414;53.946;27.634;2023-08-08T03:12:09;98042.726562;;;16.260000;73.081055
77517;BME280;68414;53.946;27.634;2023-08-08T03:13:09;98047.156250;;;16.200001;73.773438
77517;BME280;68414;53.946;27.634;2023-08-08T03:14:09;98057.867188;;;16.180000;74.450195
77517;BME280;68414;53.946;27.634;2023-08-08T03:15:09;98053.531250;;;16.170000;75.191406
77517;BME280;68414;53.946;27.634;2023-08-08T03:16:09;98055.546875;;;16.129999;74.933594
77517;BME280;68414;53.946;27.634;2023-08-08T03:17:09;98055.265625;;;16.000000;75.000977
77517;BME280;68414;53.946;27.634;2023-08-08T03:18:09;98052.031250;;;16.049999;75.479492
77517;BME280;68414;53.946;27.634;2023-08-08T03:19:09;98054.000000;;;16.080000;74.959961
77517;BME280;68414;53.946;27.634;2023-08-08T03:20:10;98055.453125;;;16.230000;74.130859
77517;BME280;68414;53.946;27.634;2023-08-08T03:21:09;98057.101562;;;16.170000;74.612305
77517;BME280;68414;53.946;27.634;2023-08-08T03:22:09;98061.062500;;;16.200001;74.749023
77517;BME280;68414;53.946;27.634;2023-08-08T03:23:09;98061.828125;;;16.200001;74.607422
77517;BME280;68414;53.946;27.634;2023-08-08T03:24:09;98060.484375;;;16.350000;74.039062
77517;BME280;68414;53.946;27.634;2023-08-08T03:25:09;98062.500000;;;16.350000;73.239258
77517;BME280;68414;53.946;27.634;2023-08-08T03:26:09;98061.703125;;;16.340000;73.381836
77517;BME280;68414;53.946;27.634;2023-08-08T03:27:09;98062.515625;;;16.309999;73.923828
77517;BME280;68414;53.946;27.634;2023-08-08T03:28:09;98068.812500;;;16.389999;72.961914
77517;BME280;68414;53.946;27.634;2023-08-08T03:29:09;98062.031250;;;16.400000;73.620117
77517;BME280;68414;53.946;27.634;2023-08-08T03:30:09;98066.757812;;;16.500000;72.079102
77517;BME280;68414;53.946;27.634;2023-08-08T03:31:09;98068.390625;;;16.400000;72.962891
77517;BME280;68414;53.946;27.634;2023-08-08T03:32:09;98060.765625;;;16.510000;73.003906
77517;BME280;68414;53.946;27.634;2023-08-08T03:33:09;98068.687500;;;16.530001;73.105469
77517;BME280;68414;53.946;27.634;2023-08-08T03:34:09;98072.351562;;;16.430000;73.121094
77517;BME280;68414;53.946;27.634;2023-08-08T03:35:09;98062.398438;;;16.450001;72.838867
77517;BME280;68414;53.946;27.634;2023-08-08T03:36:09;98073.867188;;;16.540001;72.250977
77517;BME280;68414;53.946;27.634;2023-08-08T03:37:09;98076.968750;;;16.600000;72.468750
77517;BME280;68414;53.946;27.634;2023-08-08T03:38:09;98065.929688;;;16.490000;73.208984
77517;BME280;68414;53.946;27.634;2023-08-08T03:39:09;98075.046875;;;16.530001;73.478516
77517;BME280;68414;53.946;27.634;2023-08-08T03:40:09;98073.625000;;;16.350000;73.118164
77517;BME280;68414;53.946;27.634;2023-08-08T03:41:09;98081.429688;;;16.500000;72.760742
77517;BME280;68414;53.946;27.634;2023-08-08T03:42:09;98081.359375;;;16.570000;73.046875
77517;BME280;68414;53.946;27.634;2023-08-08T03:43:09;98075.046875;;;16.530001;72.436523
77517;BME280;68414;53.946;27.634;2023-08-08T03:44:09;98078.632812;;;16.540001;72.589844
77517;BME280;68414;53.946;27.634;2023-08-08T03:45:09;98076.921875;;;16.629999;73.220703
77517;BME280;68414;53.946;27.634;2023-08-08T03:46:09;98085.640625;;;16.650000;72.334961
77517;BME280;68414;53.946;27.634;2023-08-08T03:47:09;98092.867188;;;16.590000;72.644531
77517;BME280;68414;53.946;27.634;2023-08-08T03:48:09;98088.429688;;;16.650000;72.949219
77517;BME280;68414;53.946;27.634;2023-08-08T03:49:09;98098.031250;;;16.610001;71.866211
77517;BME280;68414;53.946;27.634;2023-08-08T03:50:09;98096.773438;;;16.650000;72.401367
77517;BME280;68414;53.946;27.634;2023-08-08T03:51:09;98087.984375;;;16.709999;72.045898
77517;BME280;68414;53.946;27.634;2023-08-08T03:52:09;98098.609375;;;16.830000;71.055664
77517;BME280;68414;53.946;27.634;2023-08-08T03:53:09;98103.859375;;;16.740000;71.843750
77517;BME280;68414;53.946;27.634;2023-08-08T03:54:09;98097.828125;;;16.790001;70.577148
77517;BME280;68414;53.946;27.634;2023-08-08T03:55:09;98097.937500;;;16.680000;70.867188
77517;BME280;68414;53.946;27.634;2023-08-08T03:56:09;98101.562500;;;16.650000;70.787109
77517;BME280;68414;53.946;27.634;2023-08-08T03:57:09;98100.023438;;;16.600000;71.482422
77517;BME280;68414;53.946;27.634;2023-08-08T03:58:09;98097.296875;;;16.530001;71.953125
77517;BME280;68414;53.946;27.634;2023-08-08T03:59:09;98098.781250;;;16.650000;71.402344
77517;BME280;68414;53.946;27.634;2023-08-08T04:00:09;98099.218750;;;16.600000;72.282227
77517;BME280;68414;53.946;27.634;2023-08-08T04:01:09;98093.593750;;;16.670000;71.416016
77517;BME280;68414;53.946;27.634;2023-08-08T04:02:09;98096.570312;;;16.870001;70.413086
77517;BME280;68414;53.946;27.634;2023-08-08T04:03:09;98100.968750;;;16.840000;69.761719
77517;BME280;68414;53.946;27.634;2023-08-08T04:04:09;98099.156250;;;16.670000;70.723633
77517;BME280;68414;53.946;27.634;2023-08-08T04:05:09;98096.062500;;;16.580000;71.269531
77517;BME280;68414;53.946;27.634;2023-08-08T04:06:09;98098.031250;;;16.610001;71.086914
77517;BME280;68414;53.946;27.634;2023-08-08T04:07:09;98088.093750;;;16.600000;71.666992
77517;BME280;68414;53.946;27.634;2023-08-08T04:08:09;98095.093750;;;16.750000;70.252930
77517;BME280;68414;53.946;27.634;2023-08-08T04:09:09;98093.171875;;;16.680000;70.615234
77517;BME280;68414;53.946;27.634;2023-08-08T04:10:09;98099.281250;;;16.530001;70.998047
77517;BME280;68414;53.946;27.634;2023-08-08T04:11:09;98100.500000;;;16.520000;71.248047
77517;BME280;68414;53.946;27.634;2023-08-08T04:12:09;98103.734375;;;16.430000;72.649414
77517;BME280;68414;53.946;27.634;2023-08-08T04:13:09;98102.078125;;;16.490000;71.716797
77517;BME280;68414;53.946;27.634;2023-08-08T04:14:09;98101.671875;;;16.540001;71.460938
77517;BME280;68414;53.946;27.634;2023-08-08T04:15:09;98101.187500;;;16.629999;70.090820
77517;BME280;68414;53.946;27.634;2023-08-08T04:16:09;98107.343750;;;16.809999;69.823242
77517;BME280;68414;53.946;27.634;2023-08-08T04:17:09;98109.328125;;;16.809999;70.129883
77517;BME280;68414;53.946;27.634;2023-08-08T04:18:09;98113.820312;;;16.709999;70.356445
77517;BME280;68414;53.946;27.634;2023-08-08T04:19:09;98109.554688;;;16.590000;70.722656
77517;BME280;68414;53.946;27.634;2023-08-08T04:20:09;98113.132812;;;16.600000;70.975586
77517;BME280;68414;53.946;27.634;2023-08-08T04:21:09;98122.648438;;;16.620001;70.782227
77517;BME280;68414;53.946;27.634;2023-08-08T04:22:09;98119.921875;;;16.549999;71.880859
77517;BME280;68414;53.946;27.634;2023-08-08T04:23:09;98117.460938;;;16.639999;71.235352
77517;BME280;68414;53.946;27.634;2023-08-08T04:24:09;98120.062500;;;16.820000;70.286133
77517;BME280;68414;53.946;27.634;2023-08-08T04:25:11;98115.250000;;;16.860001;69.787109
77517;BME280;68414;53.946;27.634;2023-08-08T04:26:09;98120.062500;;;16.820000;70.681641
77517;BME280;68414;53.946;27.634;2023-08-08T04:27:09;98125.750000;;;16.719999;70.808594
77517;BME280;68414;53.946;27.634;2023-08-08T04:28:09;98124.257812;;;16.600000;71.974609
77517;BME280;68414;53.946;27.634;2023-08-08T04:29:09;98126.562500;;;16.680000;72.273438
77517;BME280;68414;53.946;27.634;2023-08-08T04:30:09;98123.710938;;;16.760000;70.100586
77517;BME280;68414;53.946;27.634;2023-08-08T04:31:09;98128.906250;;;16.740000;70.723633
77517;BME280;68414;53.946;27.634;2023-08-08T04:32:09;98124.156250;;;16.709999;70.904297
77517;BME280;68414;53.946;27.634;2023-08-08T04:33:11;98125.140625;;;16.910000;71.046875
77517;BME280;68414;53.946;27.634;2023-08-08T04:34:09;98132.578125;;;17.010000;69.777344
77517;BME280;68414;53.946;27.634;2023-08-08T04:35:09;98130.968750;;;17.030001;69.395508
77517;BME280;68414;53.946;27.634;2023-08-08T04:36:09;98134.609375;;;16.969999;70.574219